sensor_id;sensor_type;location;lat;lon;timestamp;P1;durP1;ratioP1;P2;durP2;ratioP2
75413;SDS011;64758;52.122;5.404;2023-05-27T00:01:07;10.43;;;1.80;;
75413;SDS011;64758;52.122;5.404;2023-05-27T00:03:34;10.63;;;2.13;;
75413;SDS011;64758;52.122;5.404;2023-05-27T00:06:01;13.15;;;1.75;;
75413;SDS011;64758;52.122;5.404;2023-05-27T00:08:28;7.45;;;1.70;;
75413;SDS011;64758;52.122;5.404;2023-05-27T00:10:54;8.40;;;1.60;;
75413;SDS011;64758;52.122;5.404;2023-05-27T00:13:21;9.60;;;2.15;;
75413;SDS011;64758;52.122;5.404;2023-05-27T00:15:47;7.72;;;1.80;;
75413;SDS011;64758;52.122;5.404;2023-05-27T00:18:14;6.97;;;1.90;;
75413;SDS011;64758;52.122;5.404;2023-05-27T00:20:41;9.30;;;1.90;;
75413;SDS011;64758;52.122;5.404;2023-05-27T00:23:08;12.30;;;2.07;;
75413;SDS011;64758;52.122;5.404;2023-05-27T00:25:34;8.07;;;2.00;;
75413;SDS011;64758;52.122;5.404;2023-05-27T00:28:01;11.50;;;2.65;;
75413;SDS011;64758;52.122;5.404;2023-05-27T00:30:28;10.10;;;1.75;;
75413;SDS011;64758;52.122;5.404;2023-05-27T00:32:54;13.65;;;2.17;;
75413;SDS011;64758;52.122;5.404;2023-05-27T00:35:21;6.93;;;1.80;;
75413;SDS011;64758;52.122;5.404;2023-05-27T00:37:48;8.30;;;2.30;;
75413;SDS011;64758;52.122;5.404;2023-05-27T00:40:15;12.18;;;1.90;;
75413;SDS011;64758;52.122;5.404;2023-05-27T00:42:46;8.85;;;1.90;;
75413;SDS011;64758;52.122;5.404;2023-05-27T00:45:12;9.20;;;2.35;;
75413;SDS011;64758;52.122;5.404;2023-05-27T00:47:39;8.23;;;1.77;;
75413;SDS011;64758;52.122;5.404;2023-05-27T00:50:06;7.93;;;1.80;;
75413;SDS011;64758;52.122;5.404;2023-05-27T00:52:34;11.70;;;2.15;;
75413;SDS011;64758;52.122;5.404;2023-05-27T00:55:00;10.35;;;1.85;;
75413;SDS011;64758;52.122;5.404;2023-05-27T00:57:27;6.47;;;1.52;;
75413;SDS011;64758;52.122;5.404;2023-05-27T00:59:54;11.10;;;1.50;;
75413;SDS011;64758;52.122;5.404;2023-05-27T01:02:21;8.15;;;1.83;;
75413;SDS011;64758;52.122;5.404;2023-05-27T01:04:48;8.10;;;1.85;;
75413;SDS011;64758;52.122;5.404;2023-05-27T01:07:39;11.48;;;2.10;;
75413;SDS011;64758;52.122;5.404;2023-05-27T01:10:23;5.78;;;1.70;;
75413;SDS011;64758;52.122;5.404;2023-05-27T01:13:00;8.03;;;1.87;;
75413;SDS011;64758;52.122;5.404;2023-05-27T01:15:32;11.27;;;2.22;;
75413;SDS011;64758;52.122;5.404;2023-05-27T01:17:59;7.00;;;1.58;;
75413;SDS011;64758;52.122;5.404;2023-05-27T01:20:32;5.95;;;1.58;;
75413;SDS011;64758;52.122;5.404;2023-05-27T01:22:59;9.98;;;1.63;;
75413;SDS011;64758;52.122;5.404;2023-05-27T01:25:27;6.77;;;1.50;;
75413;SDS011;64758;52.122;5.404;2023-05-27T01:27:54;7.63;;;1.90;;
75413;SDS011;64758;52.122;5.404;2023-05-27T01:30:22;8.25;;;1.73;;
75413;SDS011;64758;52.122;5.404;2023-05-27T01:32:52;7.72;;;1.63;;
75413;SDS011;64758;52.122;5.404;2023-05-27T01:35:44;13.55;;;2.08;;
75413;SDS011;64758;52.122;5.404;2023-05-27T01:38:16;10.33;;;2.07;;
75413;SDS011;64758;52.122;5.404;2023-05-27T01:40:46;7.47;;;1.70;;
75413;SDS011;64758;52.122;5.404;2023-05-27T01:43:15;10.93;;;2.33;;
75413;SDS011;64758;52.122;5.404;2023-05-27T01:45:43;10.07;;;2.08;;
75413;SDS011;64758;52.122;5.404;2023-05-27T01:48:10;10.52;;;1.98;;
75413;SDS011;64758;52.122;5.404;2023-05-27T01:50:37;6.13;;;1.57;;
75413;SDS011;64758;52.122;5.404;2023-05-27T01:53:04;9.43;;;2.20;;
75413;SDS011;64758;52.122;5.404;2023-05-27T01:55:30;10.77;;;2.05;;
75413;SDS011;64758;52.122;5.404;2023-05-27T01:57:57;7.07;;;1.60;;
75413;SDS011;64758;52.122;5.404;2023-05-27T02:00:24;6.50;;;1.60;;
75413;SDS011;64758;52.122;5.404;2023-05-27T02:02:50;10.80;;;1.97;;
75413;SDS011;64758;52.122;5.404;2023-05-27T02:05:17;15.13;;;2.22;;
75413;SDS011;64758;52.122;5.404;2023-05-27T02:07:43;10.75;;;1.75;;
75413;SDS011;64758;52.122;5.404;2023-05-27T02:10:10;9.55;;;1.98;;
75413;SDS011;64758;52.122;5.404;2023-05-27T02:12:37;7.95;;;1.90;;
75413;SDS011;64758;52.122;5.404;2023-05-27T02:15:03;10.93;;;1.87;;
75413;SDS011;64758;52.122;5.404;2023-05-27T02:17:31;7.80;;;1.55;;
75413;SDS011;64758;52.122;5.404;2023-05-27T02:19:57;7.78;;;1.60;;
75413;SDS011;64758;52.122;5.404;2023-05-27T02:22:24;8.25;;;1.80;;
75413;SDS011;64758;52.122;5.404;2023-05-27T02:24:50;13.13;;;2.60;;
75413;SDS011;64758;52.122;5.404;2023-05-27T02:27:17;9.13;;;1.90;;
75413;SDS011;64758;52.122;5.404;2023-05-27T02:29:44;11.05;;;1.73;;
75413;SDS011;64758;52.122;5.404;2023-05-27T02:32:10;7.13;;;1.88;;
75413;SDS011;64758;52.122;5.404;2023-05-27T02:34:37;12.50;;;1.85;;
75413;SDS011;64758;52.122;5.404;2023-05-27T02:37:04;11.80;;;1.73;;
75413;SDS011;64758;52.122;5.404;2023-05-27T02:39:30;8.20;;;1.67;;
75413;SDS011;64758;52.122;5.404;2023-05-27T02:41:57;10.60;;;1.83;;
75413;SDS011;64758;52.122;5.404;2023-05-27T02:44:24;7.13;;;1.58;;
75413;SDS011;64758;52.122;5.404;2023-05-27T02:46:50;5.20;;;1.63;;
75413;SDS011;64758;52.122;5.404;2023-05-27T02:49:17;7.32;;;2.25;;
75413;SDS011;64758;52.122;5.404;2023-05-27T02:51:44;12.03;;;1.87;;
75413;SDS011;64758;52.122;5.404;2023-05-27T02:54:11;8.57;;;1.80;;
75413;SDS011;64758;52.122;5.404;2023-05-27T02:56:37;10.85;;;1.77;;
75413;SDS011;64758;52.122;5.404;2023-05-27T02:59:04;9.30;;;1.40;;
75413;SDS011;64758;52.122;5.404;2023-05-27T03:01:31;6.38;;;1.70;;
75413;SDS011;64758;52.122;5.404;2023-05-27T03:03:58;9.87;;;1.77;;
75413;SDS011;64758;52.122;5.404;2023-05-27T03:06:24;8.48;;;1.88;;
75413;SDS011;64758;52.122;5.404;2023-05-27T03:08:51;10.63;;;2.10;;
75413;SDS011;64758;52.122;5.404;2023-05-27T03:11:17;5.50;;;1.40;;
75413;SDS011;64758;52.122;5.404;2023-05-27T03:13:44;7.97;;;2.08;;
75413;SDS011;64758;52.122;5.404;2023-05-27T03:16:10;7.10;;;1.27;;
75413;SDS011;64758;52.122;5.404;2023-05-27T03:18:39;6.80;;;2.33;;
75413;SDS011;64758;52.122;5.404;2023-05-27T03:21:05;8.77;;;1.60;;
75413;SDS011;64758;52.122;5.404;2023-05-27T03:23:32;10.32;;;1.73;;
75413;SDS011;64758;52.122;5.404;2023-05-27T03:25:59;9.85;;;2.10;;
75413;SDS011;64758;52.122;5.404;2023-05-27T03:28:25;8.30;;;1.60;;
75413;SDS011;64758;52.122;5.404;2023-05-27T03:30:52;10.50;;;1.88;;
75413;SDS011;64758;52.122;5.404;2023-05-27T03:33:22;9.48;;;2.10;;
75413;SDS011;64758;52.122;5.404;2023-05-27T03:35:50;7.90;;;1.90;;
75413;SDS011;64758;52.122;5.404;2023-05-27T03:38:18;8.95;;;1.83;;
75413;SDS011;64758;52.122;5.404;2023-05-27T03:40:45;8.67;;;1.70;;
75413;SDS011;64758;52.122;5.404;2023-05-27T03:43:11;12.52;;;2.65;;
75413;SDS011;64758;52.122;5.404;2023-05-27T03:45:38;10.20;;;2.13;;
75413;SDS011;64758;52.122;5.404;2023-05-27T03:48:04;10.43;;;1.92;;
75413;SDS011;64758;52.122;5.404;2023-05-27T03:50:32;8.95;;;2.10;;
75413;SDS011;64758;52.122;5.404;2023-05-27T03:53:00;7.93;;;2.03;;
75413;SDS011;64758;52.122;5.404;2023-05-27T03:55:26;6.75;;;1.58;;
75413;SDS011;64758;52.122;5.404;2023-05-27T03:57:53;7.90;;;2.10;;
75413;SDS011;64758;52.122;5.404;2023-05-27T04:00:19;11.50;;;2.05;;
75413;SDS011;64758;52.122;5.404;2023-05-27T04:02:46;7.55;;;2.10;;
75413;SDS011;64758;52.122;5.404;2023-05-27T04:05:13;10.80;;;1.80;;
75413;SDS011;64758;52.122;5.404;2023-05-27T04:07:42;8.45;;;1.52;;
75413;SDS011;64758;52.122;5.404;2023-05-27T04:10:09;7.82;;;2.22;;
75413;SDS011;64758;52.122;5.404;2023-05-27T04:12:36;5.82;;;1.75;;
75413;SDS011;64758;52.122;5.404;2023-05-27T04:15:02;7.68;;;2.30;;
75413;SDS011;64758;52.122;5.404;2023-05-27T04:17:29;8.70;;;1.70;;
75413;SDS011;64758;52.122;5.404;2023-05-27T04:19:56;4.03;;;1.75;;
75413;SDS011;64758;52.122;5.404;2023-05-27T04:22:22;9.05;;;1.90;;
75413;SDS011;64758;52.122;5.404;2023-05-27T04:24:50;6.90;;;2.00;;
75413;SDS011;64758;52.122;5.404;2023-05-27T04:27:18;11.73;;;2.13;;
75413;SDS011;64758;52.122;5.404;2023-05-27T04:29:45;9.90;;;2.23;;
75413;SDS011;64758;52.122;5.404;2023-05-27T04:32:11;7.90;;;2.10;;
75413;SDS011;64758;52.122;5.404;2023-05-27T04:34:38;15.25;;;2.40;;
75413;SDS011;64758;52.122;5.404;2023-05-27T04:37:11;7.85;;;1.88;;
75413;SDS011;64758;52.122;5.404;2023-05-27T04:39:37;11.88;;;2.33;;
75413;SDS011;64758;52.122;5.404;2023-05-27T04:42:12;15.13;;;2.30;;
75413;SDS011;64758;52.122;5.404;2023-05-27T04:44:39;8.65;;;2.00;;
75413;SDS011;64758;52.122;5.404;2023-05-27T04:47:07;9.13;;;2.13;;
75413;SDS011;64758;52.122;5.404;2023-05-27T04:49:33;10.25;;;2.45;;
75413;SDS011;64758;52.122;5.404;2023-05-27T04:52:01;13.95;;;2.53;;
75413;SDS011;64758;52.122;5.404;2023-05-27T04:54:27;13.13;;;2.27;;
75413;SDS011;64758;52.122;5.404;2023-05-27T04:56:54;9.32;;;2.58;;
75413;SDS011;64758;52.122;5.404;2023-05-27T04:59:20;7.95;;;2.17;;
75413;SDS011;64758;52.122;5.404;2023-05-27T05:01:49;11.02;;;2.00;;
75413;SDS011;64758;52.122;5.404;2023-05-27T05:04:38;10.30;;;2.40;;
75413;SDS011;64758;52.122;5.404;2023-05-27T05:07:05;9.00;;;1.80;;
75413;SDS011;64758;52.122;5.404;2023-05-27T05:09:33;7.25;;;2.30;;
75413;SDS011;64758;52.122;5.404;2023-05-27T05:11:59;9.15;;;2.70;;
75413;SDS011;64758;52.122;5.404;2023-05-27T05:14:29;14.82;;;2.53;;
75413;SDS011;64758;52.122;5.404;2023-05-27T05:16:55;8.23;;;1.88;;
75413;SDS011;64758;52.122;5.404;2023-05-27T05:19:22;11.57;;;2.30;;
75413;SDS011;64758;52.122;5.404;2023-05-27T05:21:49;7.72;;;2.10;;
75413;SDS011;64758;52.122;5.404;2023-05-27T05:24:15;5.50;;;2.00;;
75413;SDS011;64758;52.122;5.404;2023-05-27T05:26:42;11.88;;;2.58;;
75413;SDS011;64758;52.122;5.404;2023-05-27T05:29:10;12.32;;;1.92;;
75413;SDS011;64758;52.122;5.404;2023-05-27T05:31:36;8.47;;;2.27;;
75413;SDS011;64758;52.122;5.404;2023-05-27T05:34:03;14.88;;;2.15;;
75413;SDS011;64758;52.122;5.404;2023-05-27T05:36:29;7.10;;;1.90;;
75413;SDS011;64758;52.122;5.404;2023-05-27T05:38:56;8.35;;;2.20;;
75413;SDS011;64758;52.122;5.404;2023-05-27T05:41:23;9.30;;;2.60;;
75413;SDS011;64758;52.122;5.404;2023-05-27T05:43:49;10.47;;;2.70;;
75413;SDS011;64758;52.122;5.404;2023-05-27T05:46:16;12.07;;;2.33;;
75413;SDS011;64758;52.122;5.404;2023-05-27T05:48:42;13.93;;;2.60;;
75413;SDS011;64758;52.122;5.404;2023-05-27T05:51:09;12.82;;;2.53;;
75413;SDS011;64758;52.122;5.404;2023-05-27T05:53:35;11.55;;;2.63;;
75413;SDS011;64758;52.122;5.404;2023-05-27T05:56:02;9.43;;;2.53;;
75413;SDS011;64758;52.122;5.404;2023-05-27T05:58:29;11.00;;;3.70;;
75413;SDS011;64758;52.122;5.404;2023-05-27T06:00:56;7.47;;;2.45;;
75413;SDS011;64758;52.122;5.404;2023-05-27T06:03:22;13.82;;;2.92;;
75413;SDS011;64758;52.122;5.404;2023-05-27T06:05:49;13.90;;;2.55;;
75413;SDS011;64758;52.122;5.404;2023-05-27T06:08:15;10.53;;;2.40;;
75413;SDS011;64758;52.122;5.404;2023-05-27T06:10:42;11.00;;;2.35;;
75413;SDS011;64758;52.122;5.404;2023-05-27T06:13:08;14.85;;;2.50;;
75413;SDS011;64758;52.122;5.404;2023-05-27T06:15:38;8.88;;;2.00;;
75413;SDS011;64758;52.122;5.404;2023-05-27T06:18:04;12.93;;;2.72;;
75413;SDS011;64758;52.122;5.404;2023-05-27T06:20:31;9.30;;;2.30;;
75413;SDS011;64758;52.122;5.404;2023-05-27T06:22:58;11.27;;;2.33;;
75413;SDS011;64758;52.122;5.404;2023-05-27T06:25:24;10.32;;;2.38;;
75413;SDS011;64758;52.122;5.404;2023-05-27T06:27:51;9.45;;;2.60;;
75413;SDS011;64758;52.122;5.404;2023-05-27T06:30:17;13.90;;;2.60;;
75413;SDS011;64758;52.122;5.404;2023-05-27T06:32:44;7.77;;;2.73;;
75413;SDS011;64758;52.122;5.404;2023-05-27T06:35:11;14.48;;;2.90;;
75413;SDS011;64758;52.122;5.404;2023-05-27T06:37:37;14.02;;;2.75;;
75413;SDS011;64758;52.122;5.404;2023-05-27T06:40:04;8.25;;;2.30;;
75413;SDS011;64758;52.122;5.404;2023-05-27T06:42:31;9.65;;;2.35;;
75413;SDS011;64758;52.122;5.404;2023-05-27T06:44:57;9.27;;;1.90;;
75413;SDS011;64758;52.122;5.404;2023-05-27T06:47:24;8.23;;;2.28;;
75413;SDS011;64758;52.122;5.404;2023-05-27T06:49:50;10.50;;;2.80;;
75413;SDS011;64758;52.122;5.404;2023-05-27T06:52:17;9.38;;;2.13;;
75413;SDS011;64758;52.122;5.404;2023-05-27T06:54:44;10.05;;;2.63;;
75413;SDS011;64758;52.122;5.404;2023-05-27T06:57:10;12.27;;;2.70;;
75413;SDS011;64758;52.122;5.404;2023-05-27T06:59:37;12.25;;;2.20;;
75413;SDS011;64758;52.122;5.404;2023-05-27T07:02:04;8.50;;;1.98;;
75413;SDS011;64758;52.122;5.404;2023-05-27T07:04:30;11.70;;;2.67;;
75413;SDS011;64758;52.122;5.404;2023-05-27T07:06:57;9.45;;;2.60;;
75413;SDS011;64758;52.122;5.404;2023-05-27T07:09:23;12.47;;;2.77;;
75413;SDS011;64758;52.122;5.404;2023-05-27T07:11:50;10.73;;;2.70;;
75413;SDS011;64758;52.122;5.404;2023-05-27T07:14:17;14.35;;;3.00;;
75413;SDS011;64758;52.122;5.404;2023-05-27T07:16:43;14.48;;;3.10;;
75413;SDS011;64758;52.122;5.404;2023-05-27T07:19:10;15.75;;;2.78;;
75413;SDS011;64758;52.122;5.404;2023-05-27T07:21:36;9.23;;;2.80;;
75413;SDS011;64758;52.122;5.404;2023-05-27T07:24:03;9.98;;;2.13;;
75413;SDS011;64758;52.122;5.404;2023-05-27T07:26:30;11.55;;;2.67;;
75413;SDS011;64758;52.122;5.404;2023-05-27T07:28:58;11.20;;;2.75;;
75413;SDS011;64758;52.122;5.404;2023-05-27T07:31:26;14.50;;;2.25;;
75413;SDS011;64758;52.122;5.404;2023-05-27T07:33:53;12.37;;;2.60;;
75413;SDS011;64758;52.122;5.404;2023-05-27T07:36:20;16.15;;;2.60;;
75413;SDS011;64758;52.122;5.404;2023-05-27T07:38:47;12.25;;;2.28;;
75413;SDS011;64758;52.122;5.404;2023-05-27T07:41:13;10.20;;;2.53;;
75413;SDS011;64758;52.122;5.404;2023-05-27T07:43:40;15.68;;;2.92;;
75413;SDS011;64758;52.122;5.404;2023-05-27T07:46:07;12.20;;;3.23;;
75413;SDS011;64758;52.122;5.404;2023-05-27T07:48:33;12.75;;;2.63;;
75413;SDS011;64758;52.122;5.404;2023-05-27T07:51:00;14.82;;;2.65;;
75413;SDS011;64758;52.122;5.404;2023-05-27T07:53:27;11.63;;;2.63;;
75413;SDS011;64758;52.122;5.404;2023-05-27T07:55:53;10.82;;;3.33;;
75413;SDS011;64758;52.122;5.404;2023-05-27T07:58:20;13.33;;;2.70;;
75413;SDS011;64758;52.122;5.404;2023-05-27T08:00:46;10.85;;;2.63;;
75413;SDS011;64758;52.122;5.404;2023-05-27T08:03:13;12.13;;;2.70;;
75413;SDS011;64758;52.122;5.404;2023-05-27T08:05:39;9.48;;;2.60;;
75413;SDS011;64758;52.122;5.404;2023-05-27T08:08:06;15.63;;;3.20;;
75413;SDS011;64758;52.122;5.404;2023-05-27T08:10:33;11.57;;;2.73;;
75413;SDS011;64758;52.122;5.404;2023-05-27T08:13:00;16.67;;;4.05;;
75413;SDS011;64758;52.122;5.404;2023-05-27T08:15:26;9.60;;;2.45;;
75413;SDS011;64758;52.122;5.404;2023-05-27T08:17:53;11.10;;;2.90;;
75413;SDS011;64758;52.122;5.404;2023-05-27T08:20:20;11.00;;;3.20;;
75413;SDS011;64758;52.122;5.404;2023-05-27T08:22:46;10.63;;;3.30;;
75413;SDS011;64758;52.122;5.404;2023-05-27T08:25:13;15.80;;;2.80;;
75413;SDS011;64758;52.122;5.404;2023-05-27T08:30:13;12.68;;;2.95;;
75413;SDS011;64758;52.122;5.404;2023-05-27T08:32:40;16.67;;;2.78;;
75413;SDS011;64758;52.122;5.404;2023-05-27T08:35:08;12.47;;;2.80;;
75413;SDS011;64758;52.122;5.404;2023-05-27T08:37:36;10.35;;;3.25;;
75413;SDS011;64758;52.122;5.404;2023-05-27T08:40:04;11.98;;;2.85;;
75413;SDS011;64758;52.122;5.404;2023-05-27T08:42:33;9.27;;;3.40;;
75413;SDS011;64758;52.122;5.404;2023-05-27T08:45:00;10.60;;;2.97;;
75413;SDS011;64758;52.122;5.404;2023-05-27T08:47:28;12.73;;;3.13;;
75413;SDS011;64758;52.122;5.404;2023-05-27T08:49:56;12.98;;;3.38;;
75413;SDS011;64758;52.122;5.404;2023-05-27T08:52:26;16.33;;;3.25;;
75413;SDS011;64758;52.122;5.404;2023-05-27T08:54:54;11.07;;;3.60;;
75413;SDS011;64758;52.122;5.404;2023-05-27T08:57:27;11.90;;;3.50;;
75413;SDS011;64758;52.122;5.404;2023-05-27T08:59:56;16.33;;;3.17;;
75413;SDS011;64758;52.122;5.404;2023-05-27T09:02:23;14.93;;;3.55;;
75413;SDS011;64758;52.122;5.404;2023-05-27T09:04:50;15.05;;;3.53;;
75413;SDS011;64758;52.122;5.404;2023-05-27T09:07:19;10.90;;;3.25;;
75413;SDS011;64758;52.122;5.404;2023-05-27T09:09:58;10.85;;;3.40;;
75413;SDS011;64758;52.122;5.404;2023-05-27T09:12:27;10.77;;;3.00;;
75413;SDS011;64758;52.122;5.404;2023-05-27T09:14:54;18.38;;;3.40;;
75413;SDS011;64758;52.122;5.404;2023-05-27T09:17:22;12.65;;;3.25;;
75413;SDS011;64758;52.122;5.404;2023-05-27T09:19:50;10.13;;;3.10;;
75413;SDS011;64758;52.122;5.404;2023-05-27T09:22:19;14.02;;;3.72;;
75413;SDS011;64758;52.122;5.404;2023-05-27T09:24:47;9.73;;;3.87;;
75413;SDS011;64758;52.122;5.404;2023-05-27T09:27:14;14.40;;;3.50;;
75413;SDS011;64758;52.122;5.404;2023-05-27T09:29:41;8.93;;;3.40;;
75413;SDS011;64758;52.122;5.404;2023-05-27T09:32:08;13.82;;;3.30;;
75413;SDS011;64758;52.122;5.404;2023-05-27T09:34:38;10.95;;;3.60;;
75413;SDS011;64758;52.122;5.404;2023-05-27T09:37:05;13.97;;;4.43;;
75413;SDS011;64758;52.122;5.404;2023-05-27T09:39:40;9.85;;;3.45;;
75413;SDS011;64758;52.122;5.404;2023-05-27T09:42:07;11.65;;;3.63;;
75413;SDS011;64758;52.122;5.404;2023-05-27T09:44:36;12.07;;;3.50;;
75413;SDS011;64758;52.122;5.404;2023-05-27T09:47:04;12.25;;;3.15;;
75413;SDS011;64758;52.122;5.404;2023-05-27T09:49:36;11.33;;;3.40;;
75413;SDS011;64758;52.122;5.404;2023-05-27T09:52:07;12.40;;;4.00;;
75413;SDS011;64758;52.122;5.404;2023-05-27T09:54:37;9.90;;;3.05;;
75413;SDS011;64758;52.122;5.404;2023-05-27T09:57:04;9.70;;;3.50;;
75413;SDS011;64758;52.122;5.404;2023-05-27T09:59:32;8.70;;;3.33;;
75413;SDS011;64758;52.122;5.404;2023-05-27T10:02:00;9.67;;;3.50;;
75413;SDS011;64758;52.122;5.404;2023-05-27T10:04:29;13.57;;;3.63;;
75413;SDS011;64758;52.122;5.404;2023-05-27T10:06:56;18.63;;;4.20;;
75413;SDS011;64758;52.122;5.404;2023-05-27T10:09:23;11.68;;;3.53;;
75413;SDS011;64758;52.122;5.404;2023-05-27T10:11:50;12.23;;;3.55;;
75413;SDS011;64758;52.122;5.404;2023-05-27T10:14:17;11.73;;;3.20;;
75413;SDS011;64758;52.122;5.404;2023-05-27T10:16:52;11.18;;;3.13;;
75413;SDS011;64758;52.122;5.404;2023-05-27T10:19:22;13.20;;;4.07;;
75413;SDS011;64758;52.122;5.404;2023-05-27T10:21:49;14.18;;;3.47;;
75413;SDS011;64758;52.122;5.404;2023-05-27T10:24:15;10.88;;;3.10;;
75413;SDS011;64758;52.122;5.404;2023-05-27T10:26:43;11.33;;;3.40;;
75413;SDS011;64758;52.122;5.404;2023-05-27T10:29:12;11.13;;;3.58;;
75413;SDS011;64758;52.122;5.404;2023-05-27T10:31:44;12.27;;;3.22;;
75413;SDS011;64758;52.122;5.404;2023-05-27T10:34:11;13.38;;;3.58;;
75413;SDS011;64758;52.122;5.404;2023-05-27T10:36:37;7.95;;;3.60;;
75413;SDS011;64758;52.122;5.404;2023-05-27T10:39:05;9.40;;;3.20;;
75413;SDS011;64758;52.122;5.404;2023-05-27T10:41:52;12.57;;;3.30;;
75413;SDS011;64758;52.122;5.404;2023-05-27T10:47:21;10.32;;;3.33;;
75413;SDS011;64758;52.122;5.404;2023-05-27T10:49:55;9.43;;;3.45;;
75413;SDS011;64758;52.122;5.404;2023-05-27T10:52:23;7.50;;;3.30;;
75413;SDS011;64758;52.122;5.404;2023-05-27T10:54:51;16.23;;;3.78;;
75413;SDS011;64758;52.122;5.404;2023-05-27T10:57:20;12.10;;;3.38;;
75413;SDS011;64758;52.122;5.404;2023-05-27T10:59:52;6.82;;;2.88;;
75413;SDS011;64758;52.122;5.404;2023-05-27T11:02:24;10.10;;;2.72;;
75413;SDS011;64758;52.122;5.404;2023-05-27T11:04:57;8.23;;;2.97;;
75413;SDS011;64758;52.122;5.404;2023-05-27T11:07:24;11.07;;;3.13;;
75413;SDS011;64758;52.122;5.404;2023-05-27T11:09:52;12.30;;;3.28;;
75413;SDS011;64758;52.122;5.404;2023-05-27T11:12:23;12.85;;;3.13;;
75413;SDS011;64758;52.122;5.404;2023-05-27T11:14:54;9.40;;;3.83;;
75413;SDS011;64758;52.122;5.404;2023-05-27T11:17:21;12.20;;;3.17;;
75413;SDS011;64758;52.122;5.404;2023-05-27T11:19:49;11.98;;;3.42;;
75413;SDS011;64758;52.122;5.404;2023-05-27T11:22:16;8.00;;;2.92;;
75413;SDS011;64758;52.122;5.404;2023-05-27T11:27:33;11.07;;;3.13;;
75413;SDS011;64758;52.122;5.404;2023-05-27T11:30:10;12.40;;;3.10;;
75413;SDS011;64758;52.122;5.404;2023-05-27T11:32:42;6.65;;;3.33;;
75413;SDS011;64758;52.122;5.404;2023-05-27T11:35:14;16.35;;;3.42;;
75413;SDS011;64758;52.122;5.404;2023-05-27T11:37:44;8.70;;;2.67;;
75413;SDS011;64758;52.122;5.404;2023-05-27T11:40:13;9.13;;;3.00;;
75413;SDS011;64758;52.122;5.404;2023-05-27T11:42:46;9.93;;;3.23;;
75413;SDS011;64758;52.122;5.404;2023-05-27T11:45:16;8.98;;;3.30;;
75413;SDS011;64758;52.122;5.404;2023-05-27T11:47:44;11.85;;;3.15;;
75413;SDS011;64758;52.122;5.404;2023-05-27T11:50:17;13.38;;;3.80;;
75413;SDS011;64758;52.122;5.404;2023-05-27T11:52:50;8.35;;;3.28;;
75413;SDS011;64758;52.122;5.404;2023-05-27T11:55:18;9.53;;;3.10;;
75413;SDS011;64758;52.122;5.404;2023-05-27T11:57:45;9.15;;;3.00;;
75413;SDS011;64758;52.122;5.404;2023-05-27T12:00:11;9.55;;;3.30;;
75413;SDS011;64758;52.122;5.404;2023-05-27T12:02:39;14.38;;;3.17;;
75413;SDS011;64758;52.122;5.404;2023-05-27T12:05:08;10.38;;;3.10;;
75413;SDS011;64758;52.122;5.404;2023-05-27T12:07:47;9.17;;;3.23;;
75413;SDS011;64758;52.122;5.404;2023-05-27T12:10:15;9.88;;;3.15;;
75413;SDS011;64758;52.122;5.404;2023-05-27T12:12:42;11.45;;;3.28;;
75413;SDS011;64758;52.122;5.404;2023-05-27T12:15:10;7.25;;;2.65;;
75413;SDS011;64758;52.122;5.404;2023-05-27T12:17:37;5.93;;;2.60;;
75413;SDS011;64758;52.122;5.404;2023-05-27T12:20:04;8.73;;;2.97;;
75413;SDS011;64758;52.122;5.404;2023-05-27T12:22:32;8.43;;;3.10;;
75413;SDS011;64758;52.122;5.404;2023-05-27T12:24:59;9.05;;;3.30;;
75413;SDS011;64758;52.122;5.404;2023-05-27T12:27:25;10.27;;;3.17;;
75413;SDS011;64758;52.122;5.404;2023-05-27T12:29:52;8.52;;;3.20;;
75413;SDS011;64758;52.122;5.404;2023-05-27T12:32:18;11.83;;;2.83;;
75413;SDS011;64758;52.122;5.404;2023-05-27T12:34:45;8.35;;;3.10;;
75413;SDS011;64758;52.122;5.404;2023-05-27T12:37:11;8.07;;;2.55;;
75413;SDS011;64758;52.122;5.404;2023-05-27T12:39:38;9.20;;;3.03;;
75413;SDS011;64758;52.122;5.404;2023-05-27T12:42:04;10.73;;;2.78;;
75413;SDS011;64758;52.122;5.404;2023-05-27T12:44:31;8.73;;;3.07;;
75413;SDS011;64758;52.122;5.404;2023-05-27T12:46:58;7.95;;;2.63;;
75413;SDS011;64758;52.122;5.404;2023-05-27T12:49:25;6.97;;;3.15;;
75413;SDS011;64758;52.122;5.404;2023-05-27T12:51:51;10.82;;;3.33;;
75413;SDS011;64758;52.122;5.404;2023-05-27T12:54:18;8.25;;;3.10;;
75413;SDS011;64758;52.122;5.404;2023-05-27T12:56:44;12.53;;;3.27;;
75413;SDS011;64758;52.122;5.404;2023-05-27T12:59:11;7.30;;;3.25;;
75413;SDS011;64758;52.122;5.404;2023-05-27T13:01:38;7.95;;;2.60;;
75413;SDS011;64758;52.122;5.404;2023-05-27T13:04:04;8.20;;;2.80;;
75413;SDS011;64758;52.122;5.404;2023-05-27T13:06:31;6.72;;;3.10;;
75413;SDS011;64758;52.122;5.404;2023-05-27T13:08:57;9.73;;;2.80;;
75413;SDS011;64758;52.122;5.404;2023-05-27T13:11:24;9.15;;;2.90;;
75413;SDS011;64758;52.122;5.404;2023-05-27T13:13:52;11.10;;;2.65;;
75413;SDS011;64758;52.122;5.404;2023-05-27T13:16:18;11.75;;;3.97;;
75413;SDS011;64758;52.122;5.404;2023-05-27T13:18:46;10.43;;;2.97;;
75413;SDS011;64758;52.122;5.404;2023-05-27T13:21:12;15.67;;;4.20;;
75413;SDS011;64758;52.122;5.404;2023-05-27T13:23:39;8.52;;;3.00;;
75413;SDS011;64758;52.122;5.404;2023-05-27T13:26:06;8.45;;;2.90;;
75413;SDS011;64758;52.122;5.404;2023-05-27T13:28:32;9.80;;;2.85;;
75413;SDS011;64758;52.122;5.404;2023-05-27T13:30:59;8.10;;;3.38;;
75413;SDS011;64758;52.122;5.404;2023-05-27T13:33:25;10.10;;;2.87;;
75413;SDS011;64758;52.122;5.404;2023-05-27T13:35:52;9.45;;;2.95;;
75413;SDS011;64758;52.122;5.404;2023-05-27T13:38:18;7.25;;;3.03;;
75413;SDS011;64758;52.122;5.404;2023-05-27T13:40:45;9.10;;;3.17;;
75413;SDS011;64758;52.122;5.404;2023-05-27T13:43:12;14.43;;;2.88;;
75413;SDS011;64758;52.122;5.404;2023-05-27T13:45:38;9.17;;;2.90;;
75413;SDS011;64758;52.122;5.404;2023-05-27T13:48:05;6.32;;;2.97;;
75413;SDS011;64758;52.122;5.404;2023-05-27T13:50:32;6.28;;;3.08;;
75413;SDS011;64758;52.122;5.404;2023-05-27T13:52:59;8.65;;;3.10;;
75413;SDS011;64758;52.122;5.404;2023-05-27T13:55:25;9.18;;;2.90;;
75413;SDS011;64758;52.122;5.404;2023-05-27T13:57:52;10.80;;;3.20;;
75413;SDS011;64758;52.122;5.404;2023-05-27T14:00:18;8.25;;;3.50;;
75413;SDS011;64758;52.122;5.404;2023-05-27T14:02:45;10.57;;;3.15;;
75413;SDS011;64758;52.122;5.404;2023-05-27T14:05:12;8.90;;;3.17;;
75413;SDS011;64758;52.122;5.404;2023-05-27T14:07:40;9.63;;;3.25;;
75413;SDS011;64758;52.122;5.404;2023-05-27T14:10:08;13.67;;;3.87;;
75413;SDS011;64758;52.122;5.404;2023-05-27T14:12:35;9.63;;;3.53;;
75413;SDS011;64758;52.122;5.404;2023-05-27T14:15:02;8.48;;;3.53;;
75413;SDS011;64758;52.122;5.404;2023-05-27T14:17:29;5.93;;;3.38;;
75413;SDS011;64758;52.122;5.404;2023-05-27T14:19:56;9.68;;;3.40;;
75413;SDS011;64758;52.122;5.404;2023-05-27T14:22:23;8.00;;;3.00;;
75413;SDS011;64758;52.122;5.404;2023-05-27T14:24:50;6.45;;;3.22;;
75413;SDS011;64758;52.122;5.404;2023-05-27T14:27:17;10.07;;;3.58;;
75413;SDS011;64758;52.122;5.404;2023-05-27T14:29:43;9.52;;;3.47;;
75413;SDS011;64758;52.122;5.404;2023-05-27T14:32:10;6.82;;;3.00;;
75413;SDS011;64758;52.122;5.404;2023-05-27T14:34:36;6.47;;;3.30;;
75413;SDS011;64758;52.122;5.404;2023-05-27T14:37:03;8.93;;;3.22;;
75413;SDS011;64758;52.122;5.404;2023-05-27T14:39:32;9.25;;;3.53;;
75413;SDS011;64758;52.122;5.404;2023-05-27T14:41:58;9.98;;;3.65;;
75413;SDS011;64758;52.122;5.404;2023-05-27T14:44:25;9.73;;;3.60;;
75413;SDS011;64758;52.122;5.404;2023-05-27T14:46:51;10.10;;;3.20;;
75413;SDS011;64758;52.122;5.404;2023-05-27T14:49:18;6.18;;;2.90;;
75413;SDS011;64758;52.122;5.404;2023-05-27T14:51:44;10.13;;;3.10;;